Repto Yomaira, Puerto Rico
Current Conditions -  °F | °C
As of 12:50 AM on Friday 19 Dec 2014 (Local Time) from TJBQ Reporting Station
Overcast Overcast  
Wind Chill: 72°   Ceiling: 4300
Heat Index: 72°   Visibility: 7mi
Dew Point: 70°   Wind: 9mph
Humidity: 94%   Direction: 60°ENE
Pressure: 30.02"   Gusts: NA
Location:  18.4951°N, 67.0273°W
Report Text: TJBQ 190450Z 06008KT 7SM SCT034 OVC043 22/21 A3002 -RA RMK TWR CLOSED
Loading
Personal Weather Stations






























Interactive Weather Map New forecast layout! Learn more

10-Day Weather Forecast

Advertisements
Track Severe Weather on mobile